sensor_id;sensor_type;location;lat;lon;timestamp;P1;durP1;ratioP1;P2;durP2;ratioP2
75073;SDS011;63652;51.526;5.080;2022-12-16T00:00:06;36.95;;;19.02;;
75073;SDS011;63652;51.526;5.080;2022-12-16T00:02:33;39.15;;;19.80;;
75073;SDS011;63652;51.526;5.080;2022-12-16T00:04:59;46.03;;;21.50;;
75073;SDS011;63652;51.526;5.080;2022-12-16T00:07:24;41.47;;;20.60;;
75073;SDS011;63652;51.526;5.080;2022-12-16T00:09:49;46.35;;;20.75;;
75073;SDS011;63652;51.526;5.080;2022-12-16T00:12:15;40.33;;;19.48;;
75073;SDS011;63652;51.526;5.080;2022-12-16T00:14:40;44.63;;;21.83;;
75073;SDS011;63652;51.526;5.080;2022-12-16T00:17:06;52.25;;;22.98;;
75073;SDS011;63652;51.526;5.080;2022-12-16T00:19:31;49.88;;;22.10;;
75073;SDS011;63652;51.526;5.080;2022-12-16T00:21:57;48.55;;;22.65;;
75073;SDS011;63652;51.526;5.080;2022-12-16T00:24:22;39.85;;;19.88;;
75073;SDS011;63652;51.526;5.080;2022-12-16T00:26:47;47.20;;;22.48;;
75073;SDS011;63652;51.526;5.080;2022-12-16T00:29:13;46.50;;;21.45;;
75073;SDS011;63652;51.526;5.080;2022-12-16T00:31:38;44.83;;;21.50;;
75073;SDS011;63652;51.526;5.080;2022-12-16T00:34:03;48.20;;;21.35;;
75073;SDS011;63652;51.526;5.080;2022-12-16T00:36:29;46.67;;;22.38;;
75073;SDS011;63652;51.526;5.080;2022-12-16T00:38:54;46.60;;;21.58;;
75073;SDS011;63652;51.526;5.080;2022-12-16T00:41:20;37.45;;;20.33;;
75073;SDS011;63652;51.526;5.080;2022-12-16T00:43:45;48.22;;;21.48;;
75073;SDS011;63652;51.526;5.080;2022-12-16T00:46:11;43.22;;;20.42;;
75073;SDS011;63652;51.526;5.080;2022-12-16T00:48:37;45.22;;;21.02;;
75073;SDS011;63652;51.526;5.080;2022-12-16T00:51:02;51.42;;;21.05;;
75073;SDS011;63652;51.526;5.080;2022-12-16T00:53:27;53.25;;;23.15;;
75073;SDS011;63652;51.526;5.080;2022-12-16T00:56:03;44.70;;;20.35;;
75073;SDS011;63652;51.526;5.080;2022-12-16T01:00:55;40.15;;;20.33;;
75073;SDS011;63652;51.526;5.080;2022-12-16T01:03:20;46.90;;;22.52;;
75073;SDS011;63652;51.526;5.080;2022-12-16T01:05:45;45.30;;;22.65;;
75073;SDS011;63652;51.526;5.080;2022-12-16T01:08:11;48.17;;;22.65;;
75073;SDS011;63652;51.526;5.080;2022-12-16T01:10:36;45.00;;;23.15;;
75073;SDS011;63652;51.526;5.080;2022-12-16T01:13:02;49.10;;;23.02;;
75073;SDS011;63652;51.526;5.080;2022-12-16T01:15:27;47.00;;;22.27;;
75073;SDS011;63652;51.526;5.080;2022-12-16T01:17:52;47.95;;;22.42;;
75073;SDS011;63652;51.526;5.080;2022-12-16T01:20:18;48.10;;;22.00;;
75073;SDS011;63652;51.526;5.080;2022-12-16T01:22:43;47.42;;;23.17;;
75073;SDS011;63652;51.526;5.080;2022-12-16T01:25:09;45.13;;;22.05;;
75073;SDS011;63652;51.526;5.080;2022-12-16T01:27:37;46.08;;;21.77;;
75073;SDS011;63652;51.526;5.080;2022-12-16T01:30:02;48.17;;;22.77;;
75073;SDS011;63652;51.526;5.080;2022-12-16T01:32:28;44.05;;;23.08;;
75073;SDS011;63652;51.526;5.080;2022-12-16T01:34:54;46.17;;;22.98;;
75073;SDS011;63652;51.526;5.080;2022-12-16T01:37:19;44.28;;;21.98;;
75073;SDS011;63652;51.526;5.080;2022-12-16T01:39:45;49.20;;;22.45;;
75073;SDS011;63652;51.526;5.080;2022-12-16T01:42:14;49.88;;;23.10;;
75073;SDS011;63652;51.526;5.080;2022-12-16T01:44:41;47.38;;;21.10;;
75073;SDS011;63652;51.526;5.080;2022-12-16T01:47:08;48.40;;;22.63;;
75073;SDS011;63652;51.526;5.080;2022-12-16T01:52:13;52.20;;;22.23;;
75073;SDS011;63652;51.526;5.080;2022-12-16T01:54:42;47.88;;;20.63;;
75073;SDS011;63652;51.526;5.080;2022-12-16T01:57:13;42.03;;;21.75;;
75073;SDS011;63652;51.526;5.080;2022-12-16T01:59:42;44.72;;;21.15;;
75073;SDS011;63652;51.526;5.080;2022-12-16T02:02:09;45.28;;;22.17;;
75073;SDS011;63652;51.526;5.080;2022-12-16T02:04:34;50.47;;;22.10;;
75073;SDS011;63652;51.526;5.080;2022-12-16T02:07:20;45.33;;;23.02;;
75073;SDS011;63652;51.526;5.080;2022-12-16T02:09:45;54.53;;;21.85;;
75073;SDS011;63652;51.526;5.080;2022-12-16T02:12:17;46.35;;;22.13;;
75073;SDS011;63652;51.526;5.080;2022-12-16T02:17:40;50.92;;;22.63;;
75073;SDS011;63652;51.526;5.080;2022-12-16T02:20:16;56.30;;;23.17;;
75073;SDS011;63652;51.526;5.080;2022-12-16T02:39:12;47.97;;;21.88;;
75073;SDS011;63652;51.526;5.080;2022-12-16T02:42:00;46.88;;;23.45;;
75073;SDS011;63652;51.526;5.080;2022-12-16T02:44:34;47.20;;;22.20;;
75073;SDS011;63652;51.526;5.080;2022-12-16T02:47:03;49.17;;;23.38;;
75073;SDS011;63652;51.526;5.080;2022-12-16T02:51:57;47.47;;;22.17;;
75073;SDS011;63652;51.526;5.080;2022-12-16T02:54:23;49.08;;;23.45;;
75073;SDS011;63652;51.526;5.080;2022-12-16T02:57:12;45.10;;;23.45;;
75073;SDS011;63652;51.526;5.080;2022-12-16T03:00:01;51.95;;;22.98;;
75073;SDS011;63652;51.526;5.080;2022-12-16T03:05:09;45.53;;;22.42;;
75073;SDS011;63652;51.526;5.080;2022-12-16T03:07:46;47.47;;;23.05;;
75073;SDS011;63652;51.526;5.080;2022-12-16T03:10:15;46.95;;;22.63;;
75073;SDS011;63652;51.526;5.080;2022-12-16T03:12:44;46.33;;;22.15;;
75073;SDS011;63652;51.526;5.080;2022-12-16T03:15:10;51.92;;;22.58;;
75073;SDS011;63652;51.526;5.080;2022-12-16T03:17:38;46.78;;;23.85;;
75073;SDS011;63652;51.526;5.080;2022-12-16T03:20:14;53.95;;;24.02;;
75073;SDS011;63652;51.526;5.080;2022-12-16T03:22:43;53.33;;;24.05;;
75073;SDS011;63652;51.526;5.080;2022-12-16T03:25:10;53.90;;;23.90;;
75073;SDS011;63652;51.526;5.080;2022-12-16T03:27:56;41.70;;;22.52;;
75073;SDS011;63652;51.526;5.080;2022-12-16T03:30:29;55.03;;;24.92;;
75073;SDS011;63652;51.526;5.080;2022-12-16T03:33:00;48.65;;;23.85;;
75073;SDS011;63652;51.526;5.080;2022-12-16T03:35:40;48.90;;;24.35;;
75073;SDS011;63652;51.526;5.080;2022-12-16T03:38:09;61.08;;;25.02;;
75073;SDS011;63652;51.526;5.080;2022-12-16T03:40:35;54.38;;;23.63;;
75073;SDS011;63652;51.526;5.080;2022-12-16T03:43:02;49.22;;;22.52;;
75073;SDS011;63652;51.526;5.080;2022-12-16T03:45:34;47.72;;;21.73;;
75073;SDS011;63652;51.526;5.080;2022-12-16T03:48:02;47.70;;;22.92;;
75073;SDS011;63652;51.526;5.080;2022-12-16T03:50:31;48.83;;;23.20;;
75073;SDS011;63652;51.526;5.080;2022-12-16T03:52:58;48.30;;;22.83;;
75073;SDS011;63652;51.526;5.080;2022-12-16T03:55:23;52.15;;;24.73;;
75073;SDS011;63652;51.526;5.080;2022-12-16T03:57:49;52.88;;;24.30;;
75073;SDS011;63652;51.526;5.080;2022-12-16T04:00:14;57.03;;;22.98;;
75073;SDS011;63652;51.526;5.080;2022-12-16T04:02:40;57.00;;;24.05;;
75073;SDS011;63652;51.526;5.080;2022-12-16T04:05:06;53.30;;;23.52;;
75073;SDS011;63652;51.526;5.080;2022-12-16T04:07:32;52.38;;;22.48;;
75073;SDS011;63652;51.526;5.080;2022-12-16T04:09:57;56.97;;;24.90;;
75073;SDS011;63652;51.526;5.080;2022-12-16T04:12:23;51.72;;;22.77;;
75073;SDS011;63652;51.526;5.080;2022-12-16T04:15:07;43.45;;;21.42;;
75073;SDS011;63652;51.526;5.080;2022-12-16T04:17:51;46.53;;;21.15;;
75073;SDS011;63652;51.526;5.080;2022-12-16T04:20:35;41.17;;;21.35;;
75073;SDS011;63652;51.526;5.080;2022-12-16T04:23:20;42.20;;;22.02;;
75073;SDS011;63652;51.526;5.080;2022-12-16T04:26:06;51.55;;;21.45;;
75073;SDS011;63652;51.526;5.080;2022-12-16T04:28:32;56.42;;;22.92;;
75073;SDS011;63652;51.526;5.080;2022-12-16T04:30:57;45.90;;;20.63;;
75073;SDS011;63652;51.526;5.080;2022-12-16T04:33:23;51.63;;;21.63;;
75073;SDS011;63652;51.526;5.080;2022-12-16T04:36:07;43.38;;;20.67;;
75073;SDS011;63652;51.526;5.080;2022-12-16T04:38:51;45.47;;;19.98;;
75073;SDS011;63652;51.526;5.080;2022-12-16T04:41:35;49.08;;;21.52;;
75073;SDS011;63652;51.526;5.080;2022-12-16T04:44:19;46.78;;;19.92;;
75073;SDS011;63652;51.526;5.080;2022-12-16T04:47:03;48.78;;;21.17;;
75073;SDS011;63652;51.526;5.080;2022-12-16T04:49:47;45.83;;;20.88;;
75073;SDS011;63652;51.526;5.080;2022-12-16T04:52:31;47.33;;;20.50;;
75073;SDS011;63652;51.526;5.080;2022-12-16T04:55:15;49.65;;;20.08;;
75073;SDS011;63652;51.526;5.080;2022-12-16T04:58:00;38.47;;;18.70;;
75073;SDS011;63652;51.526;5.080;2022-12-16T05:00:45;43.90;;;19.88;;
75073;SDS011;63652;51.526;5.080;2022-12-16T05:03:30;42.10;;;21.13;;
75073;SDS011;63652;51.526;5.080;2022-12-16T05:06:14;45.35;;;19.58;;
75073;SDS011;63652;51.526;5.080;2022-12-16T05:08:58;42.75;;;19.40;;
75073;SDS011;63652;51.526;5.080;2022-12-16T05:11:43;42.35;;;19.05;;
75073;SDS011;63652;51.526;5.080;2022-12-16T05:14:27;39.90;;;19.48;;
75073;SDS011;63652;51.526;5.080;2022-12-16T05:17:11;38.10;;;18.58;;
75073;SDS011;63652;51.526;5.080;2022-12-16T05:19:55;32.63;;;15.25;;
75073;SDS011;63652;51.526;5.080;2022-12-16T05:22:40;32.83;;;13.82;;
75073;SDS011;63652;51.526;5.080;2022-12-16T05:25:23;27.35;;;14.80;;
75073;SDS011;63652;51.526;5.080;2022-12-16T05:28:07;30.20;;;14.65;;
75073;SDS011;63652;51.526;5.080;2022-12-16T05:30:51;29.70;;;14.43;;
75073;SDS011;63652;51.526;5.080;2022-12-16T05:33:36;40.55;;;16.80;;
75073;SDS011;63652;51.526;5.080;2022-12-16T05:36:20;38.80;;;16.15;;
75073;SDS011;63652;51.526;5.080;2022-12-16T05:39:04;40.42;;;17.88;;
75073;SDS011;63652;51.526;5.080;2022-12-16T05:41:48;38.75;;;17.55;;
75073;SDS011;63652;51.526;5.080;2022-12-16T05:44:32;38.65;;;17.02;;
75073;SDS011;63652;51.526;5.080;2022-12-16T05:47:16;42.17;;;18.45;;
75073;SDS011;63652;51.526;5.080;2022-12-16T05:50:00;38.80;;;15.63;;
75073;SDS011;63652;51.526;5.080;2022-12-16T05:52:54;36.13;;;15.15;;
75073;SDS011;63652;51.526;5.080;2022-12-16T05:55:39;38.67;;;19.08;;
75073;SDS011;63652;51.526;5.080;2022-12-16T05:58:23;33.85;;;14.50;;
75073;SDS011;63652;51.526;5.080;2022-12-16T06:01:08;40.40;;;16.90;;
75073;SDS011;63652;51.526;5.080;2022-12-16T06:03:52;36.20;;;16.80;;
75073;SDS011;63652;51.526;5.080;2022-12-16T06:06:36;41.28;;;17.85;;
75073;SDS011;63652;51.526;5.080;2022-12-16T06:09:20;34.22;;;16.35;;
75073;SDS011;63652;51.526;5.080;2022-12-16T06:12:04;35.17;;;16.40;;
75073;SDS011;63652;51.526;5.080;2022-12-16T06:14:48;38.35;;;17.45;;
75073;SDS011;63652;51.526;5.080;2022-12-16T06:17:32;38.95;;;16.77;;
75073;SDS011;63652;51.526;5.080;2022-12-16T06:20:16;33.47;;;16.63;;
75073;SDS011;63652;51.526;5.080;2022-12-16T06:23:00;43.17;;;17.13;;
75073;SDS011;63652;51.526;5.080;2022-12-16T06:25:44;37.70;;;17.52;;
75073;SDS011;63652;51.526;5.080;2022-12-16T06:28:28;39.70;;;17.00;;
75073;SDS011;63652;51.526;5.080;2022-12-16T06:31:12;37.47;;;15.00;;
75073;SDS011;63652;51.526;5.080;2022-12-16T06:33:56;35.58;;;14.57;;
75073;SDS011;63652;51.526;5.080;2022-12-16T06:36:40;33.10;;;14.80;;
75073;SDS011;63652;51.526;5.080;2022-12-16T06:39:24;37.85;;;16.92;;
75073;SDS011;63652;51.526;5.080;2022-12-16T06:42:08;34.30;;;16.13;;
75073;SDS011;63652;51.526;5.080;2022-12-16T06:44:52;29.77;;;15.32;;
75073;SDS011;63652;51.526;5.080;2022-12-16T06:47:41;32.58;;;15.07;;
75073;SDS011;63652;51.526;5.080;2022-12-16T06:50:25;33.03;;;15.90;;
75073;SDS011;63652;51.526;5.080;2022-12-16T06:53:09;32.00;;;16.00;;
75073;SDS011;63652;51.526;5.080;2022-12-16T06:55:53;32.63;;;15.02;;
75073;SDS011;63652;51.526;5.080;2022-12-16T06:58:37;33.90;;;15.63;;
75073;SDS011;63652;51.526;5.080;2022-12-16T07:01:22;27.33;;;13.07;;
75073;SDS011;63652;51.526;5.080;2022-12-16T07:04:06;29.88;;;14.25;;
75073;SDS011;63652;51.526;5.080;2022-12-16T07:06:50;31.23;;;14.25;;
75073;SDS011;63652;51.526;5.080;2022-12-16T07:09:34;27.45;;;13.75;;
75073;SDS011;63652;51.526;5.080;2022-12-16T07:12:18;32.10;;;13.82;;
75073;SDS011;63652;51.526;5.080;2022-12-16T07:15:02;32.03;;;15.65;;
75073;SDS011;63652;51.526;5.080;2022-12-16T07:17:46;33.08;;;14.30;;
75073;SDS011;63652;51.526;5.080;2022-12-16T07:20:31;31.58;;;15.50;;
75073;SDS011;63652;51.526;5.080;2022-12-16T07:23:15;37.25;;;15.30;;
75073;SDS011;63652;51.526;5.080;2022-12-16T07:25:59;35.25;;;15.38;;
75073;SDS011;63652;51.526;5.080;2022-12-16T07:28:43;29.42;;;14.27;;
75073;SDS011;63652;51.526;5.080;2022-12-16T07:31:27;34.20;;;14.27;;
75073;SDS011;63652;51.526;5.080;2022-12-16T07:34:11;29.38;;;14.65;;
75073;SDS011;63652;51.526;5.080;2022-12-16T07:36:55;33.05;;;15.30;;
75073;SDS011;63652;51.526;5.080;2022-12-16T07:39:39;32.67;;;14.50;;
75073;SDS011;63652;51.526;5.080;2022-12-16T07:42:23;34.25;;;14.70;;
75073;SDS011;63652;51.526;5.080;2022-12-16T07:45:07;30.27;;;13.77;;
75073;SDS011;63652;51.526;5.080;2022-12-16T07:47:52;41.08;;;16.20;;
75073;SDS011;63652;51.526;5.080;2022-12-16T07:50:36;38.17;;;15.85;;
75073;SDS011;63652;51.526;5.080;2022-12-16T07:53:20;33.47;;;17.45;;
75073;SDS011;63652;51.526;5.080;2022-12-16T07:56:04;33.38;;;14.45;;
75073;SDS011;63652;51.526;5.080;2022-12-16T07:58:48;32.97;;;14.82;;
75073;SDS011;63652;51.526;5.080;2022-12-16T08:01:32;29.98;;;14.95;;
75073;SDS011;63652;51.526;5.080;2022-12-16T08:04:17;31.05;;;14.68;;
75073;SDS011;63652;51.526;5.080;2022-12-16T08:07:00;31.13;;;12.57;;
75073;SDS011;63652;51.526;5.080;2022-12-16T08:09:45;29.27;;;13.88;;
75073;SDS011;63652;51.526;5.080;2022-12-16T08:12:29;29.45;;;13.85;;
75073;SDS011;63652;51.526;5.080;2022-12-16T08:15:13;29.08;;;14.48;;
75073;SDS011;63652;51.526;5.080;2022-12-16T08:17:57;29.70;;;14.73;;
75073;SDS011;63652;51.526;5.080;2022-12-16T08:20:41;34.28;;;14.77;;
75073;SDS011;63652;51.526;5.080;2022-12-16T08:23:25;36.85;;;15.65;;
75073;SDS011;63652;51.526;5.080;2022-12-16T08:26:09;41.10;;;16.00;;
75073;SDS011;63652;51.526;5.080;2022-12-16T08:28:53;47.55;;;18.55;;
75073;SDS011;63652;51.526;5.080;2022-12-16T08:31:37;45.00;;;18.70;;
75073;SDS011;63652;51.526;5.080;2022-12-16T08:34:21;48.50;;;19.08;;
75073;SDS011;63652;51.526;5.080;2022-12-16T08:37:05;43.63;;;17.65;;
75073;SDS011;63652;51.526;5.080;2022-12-16T08:39:49;43.88;;;18.95;;
75073;SDS011;63652;51.526;5.080;2022-12-16T08:42:38;48.28;;;18.85;;
75073;SDS011;63652;51.526;5.080;2022-12-16T08:45:22;49.53;;;17.92;;
75073;SDS011;63652;51.526;5.080;2022-12-16T08:48:09;38.92;;;18.17;;
75073;SDS011;63652;51.526;5.080;2022-12-16T08:51:12;36.90;;;15.30;;
75073;SDS011;63652;51.526;5.080;2022-12-16T08:53:56;36.17;;;14.93;;
75073;SDS011;63652;51.526;5.080;2022-12-16T08:56:40;38.95;;;16.13;;
75073;SDS011;63652;51.526;5.080;2022-12-16T08:59:25;48.38;;;16.48;;
75073;SDS011;63652;51.526;5.080;2022-12-16T09:02:09;41.80;;;14.95;;
75073;SDS011;63652;51.526;5.080;2022-12-16T09:04:54;45.92;;;13.77;;
75073;SDS011;63652;51.526;5.080;2022-12-16T09:07:39;29.65;;;13.50;;
75073;SDS011;63652;51.526;5.080;2022-12-16T09:10:23;31.40;;;13.07;;
75073;SDS011;63652;51.526;5.080;2022-12-16T09:13:10;29.77;;;12.20;;
75073;SDS011;63652;51.526;5.080;2022-12-16T09:15:57;32.05;;;11.93;;
75073;SDS011;63652;51.526;5.080;2022-12-16T09:18:42;39.63;;;12.40;;
75073;SDS011;63652;51.526;5.080;2022-12-16T09:21:26;40.53;;;15.68;;
75073;SDS011;63652;51.526;5.080;2022-12-16T09:24:10;37.17;;;14.20;;
75073;SDS011;63652;51.526;5.080;2022-12-16T09:26:54;32.97;;;12.40;;
75073;SDS011;63652;51.526;5.080;2022-12-16T09:29:38;26.48;;;11.88;;
75073;SDS011;63652;51.526;5.080;2022-12-16T09:32:22;27.63;;;12.73;;
75073;SDS011;63652;51.526;5.080;2022-12-16T09:35:06;25.42;;;12.02;;
75073;SDS011;63652;51.526;5.080;2022-12-16T09:37:59;24.00;;;12.13;;
75073;SDS011;63652;51.526;5.080;2022-12-16T09:40:44;23.10;;;11.50;;
75073;SDS011;63652;51.526;5.080;2022-12-16T09:46:39;24.67;;;10.60;;
75073;SDS011;63652;51.526;5.080;2022-12-16T09:49:50;20.98;;;10.50;;
75073;SDS011;63652;51.526;5.080;2022-12-16T09:52:39;29.17;;;12.65;;
75073;SDS011;63652;51.526;5.080;2022-12-16T09:55:44;25.10;;;11.88;;
75073;SDS011;63652;51.526;5.080;2022-12-16T09:58:36;22.45;;;10.75;;
75073;SDS011;63652;51.526;5.080;2022-12-16T10:01:23;22.65;;;10.13;;
75073;SDS011;63652;51.526;5.080;2022-12-16T10:04:08;25.05;;;10.70;;
75073;SDS011;63652;51.526;5.080;2022-12-16T10:06:52;23.08;;;11.63;;
75073;SDS011;63652;51.526;5.080;2022-12-16T10:12:44;28.48;;;11.35;;
75073;SDS011;63652;51.526;5.080;2022-12-16T10:15:52;24.65;;;12.13;;
75073;SDS011;63652;51.526;5.080;2022-12-16T10:18:51;22.08;;;10.25;;
75073;SDS011;63652;51.526;5.080;2022-12-16T10:24:54;22.35;;;10.38;;
75073;SDS011;63652;51.526;5.080;2022-12-16T10:27:43;23.00;;;9.32;;
75073;SDS011;63652;51.526;5.080;2022-12-16T10:30:28;20.52;;;8.60;;
75073;SDS011;63652;51.526;5.080;2022-12-16T10:33:13;16.38;;;8.05;;
75073;SDS011;63652;51.526;5.080;2022-12-16T10:35:58;27.23;;;10.18;;
75073;SDS011;63652;51.526;5.080;2022-12-16T10:38:52;24.55;;;10.25;;
75073;SDS011;63652;51.526;5.080;2022-12-16T10:41:40;19.73;;;10.35;;
75073;SDS011;63652;51.526;5.080;2022-12-16T10:47:47;20.42;;;8.10;;
75073;SDS011;63652;51.526;5.080;2022-12-16T10:50:31;17.52;;;8.32;;
75073;SDS011;63652;51.526;5.080;2022-12-16T10:53:17;20.67;;;9.15;;
75073;SDS011;63652;51.526;5.080;2022-12-16T10:59:17;19.25;;;7.70;;
75073;SDS011;63652;51.526;5.080;2022-12-16T11:02:02;14.65;;;8.52;;
75073;SDS011;63652;51.526;5.080;2022-12-16T11:04:48;20.45;;;8.70;;
75073;SDS011;63652;51.526;5.080;2022-12-16T11:07:33;14.77;;;6.68;;
75073;SDS011;63652;51.526;5.080;2022-12-16T11:10:39;16.10;;;6.13;;
75073;SDS011;63652;51.526;5.080;2022-12-16T11:16:21;12.93;;;6.25;;
75073;SDS011;63652;51.526;5.080;2022-12-16T11:19:26;14.63;;;6.97;;
75073;SDS011;63652;51.526;5.080;2022-12-16T11:22:14;12.88;;;6.13;;
75073;SDS011;63652;51.526;5.080;2022-12-16T11:25:23;9.82;;;5.55;;
75073;SDS011;63652;51.526;5.080;2022-12-16T11:28:14;10.82;;;6.00;;
75073;SDS011;63652;51.526;5.080;2022-12-16T11:31:03;13.07;;;6.05;;
75073;SDS011;63652;51.526;5.080;2022-12-16T11:33:51;14.93;;;5.45;;
75073;SDS011;63652;51.526;5.080;2022-12-16T11:36:35;12.82;;;6.57;;
75073;SDS011;63652;51.526;5.080;2022-12-16T11:39:20;11.00;;;5.85;;
75073;SDS011;63652;51.526;5.080;2022-12-16T11:42:06;15.75;;;6.18;;
75073;SDS011;63652;51.526;5.080;2022-12-16T11:45:11;10.65;;;6.40;;
75073;SDS011;63652;51.526;5.080;2022-12-16T11:48:45;14.32;;;5.78;;
75073;SDS011;63652;51.526;5.080;2022-12-16T11:51:19;12.27;;;6.28;;
75073;SDS011;63652;51.526;5.080;2022-12-16T11:56:51;8.57;;;3.65;;
75073;SDS011;63652;51.526;5.080;2022-12-16T11:59:41;10.18;;;4.10;;
75073;SDS011;63652;51.526;5.080;2022-12-16T12:02:31;8.02;;;3.85;;
75073;SDS011;63652;51.526;5.080;2022-12-16T12:05:29;8.35;;;3.60;;
75073;SDS011;63652;51.526;5.080;2022-12-16T12:23:10;6.65;;;2.55;;
75073;SDS011;63652;51.526;5.080;2022-12-16T12:26:06;9.02;;;3.38;;
75073;SDS011;63652;51.526;5.080;2022-12-16T12:28:55;5.82;;;2.47;;
75073;SDS011;63652;51.526;5.080;2022-12-16T12:34:41;9.77;;;2.92;;
75073;SDS011;63652;51.526;5.080;2022-12-16T12:43:37;7.35;;;3.35;;
75073;SDS011;63652;51.526;5.080;2022-12-16T12:46:26;9.32;;;3.92;;
75073;SDS011;63652;51.526;5.080;2022-12-16T12:52:59;10.23;;;4.30;;
75073;SDS011;63652;51.526;5.080;2022-12-16T13:02:38;9.60;;;5.07;;
75073;SDS011;63652;51.526;5.080;2022-12-16T13:05:27;14.63;;;5.03;;
75073;SDS011;63652;51.526;5.080;2022-12-16T13:11:15;10.27;;;5.20;;
75073;SDS011;63652;51.526;5.080;2022-12-16T13:13:58;12.75;;;5.28;;
75073;SDS011;63652;51.526;5.080;2022-12-16T13:28:34;11.85;;;6.35;;
75073;SDS011;63652;51.526;5.080;2022-12-16T13:31:20;12.18;;;5.43;;
75073;SDS011;63652;51.526;5.080;2022-12-16T13:34:06;13.93;;;6.00;;
75073;SDS011;63652;51.526;5.080;2022-12-16T13:37:03;11.32;;;5.65;;
75073;SDS011;63652;51.526;5.080;2022-12-16T13:39:58;12.23;;;6.05;;
75073;SDS011;63652;51.526;5.080;2022-12-16T13:42:47;10.18;;;5.07;;
75073;SDS011;63652;51.526;5.080;2022-12-16T13:45:33;9.05;;;5.10;;
75073;SDS011;63652;51.526;5.080;2022-12-16T13:48:38;11.23;;;6.15;;
75073;SDS011;63652;51.526;5.080;2022-12-16T13:54:20;12.30;;;5.60;;
75073;SDS011;63652;51.526;5.080;2022-12-16T13:57:10;12.55;;;6.10;;
75073;SDS011;63652;51.526;5.080;2022-12-16T13:59:56;10.43;;;4.15;;
75073;SDS011;63652;51.526;5.080;2022-12-16T14:02:42;13.48;;;5.90;;
75073;SDS011;63652;51.526;5.080;2022-12-16T14:05:28;10.80;;;5.97;;
75073;SDS011;63652;51.526;5.080;2022-12-16T14:08:14;15.18;;;6.18;;
75073;SDS011;63652;51.526;5.080;2022-12-16T14:11:05;12.32;;;6.20;;
75073;SDS011;63652;51.526;5.080;2022-12-16T14:13:59;11.52;;;5.40;;
75073;SDS011;63652;51.526;5.080;2022-12-16T14:16:50;17.27;;;6.15;;
75073;SDS011;63652;51.526;5.080;2022-12-16T14:22:34;15.68;;;6.20;;
75073;SDS011;63652;51.526;5.080;2022-12-16T14:25:44;13.30;;;6.22;;
75073;SDS011;63652;51.526;5.080;2022-12-16T14:28:31;10.57;;;5.07;;
75073;SDS011;63652;51.526;5.080;2022-12-16T14:34:18;13.10;;;5.55;;
75073;SDS011;63652;51.526;5.080;2022-12-16T14:39:56;10.27;;;5.68;;
75073;SDS011;63652;51.526;5.080;2022-12-16T14:42:40;11.73;;;5.68;;
75073;SDS011;63652;51.526;5.080;2022-12-16T14:45:29;13.88;;;6.22;;
75073;SDS011;63652;51.526;5.080;2022-12-16T14:54:17;10.65;;;5.80;;
75073;SDS011;63652;51.526;5.080;2022-12-16T14:57:17;12.88;;;5.57;;
75073;SDS011;63652;51.526;5.080;2022-12-16T15:00:09;10.90;;;5.45;;
75073;SDS011;63652;51.526;5.080;2022-12-16T15:05:56;9.95;;;5.10;;
75073;SDS011;63652;51.526;5.080;2022-12-16T15:08:47;12.05;;;5.53;;
75073;SDS011;63652;51.526;5.080;2022-12-16T15:11:37;11.07;;;4.80;;
75073;SDS011;63652;51.526;5.080;2022-12-16T15:14:29;11.48;;;5.07;;
75073;SDS011;63652;51.526;5.080;2022-12-16T15:17:22;11.35;;;5.47;;
75073;SDS011;63652;51.526;5.080;2022-12-16T15:20:26;10.95;;;5.55;;
75073;SDS011;63652;51.526;5.080;2022-12-16T15:23:33;11.05;;;5.35;;
75073;SDS011;63652;51.526;5.080;2022-12-16T15:26:36;10.55;;;4.95;;
75073;SDS011;63652;51.526;5.080;2022-12-16T15:29:53;14.40;;;5.72;;
75073;SDS011;63652;51.526;5.080;2022-12-16T15:32:31;15.60;;;6.20;;
75073;SDS011;63652;51.526;5.080;2022-12-16T15:35:30;13.02;;;6.22;;
75073;SDS011;63652;51.526;5.080;2022-12-16T15:41:28;11.27;;;6.00;;
75073;SDS011;63652;51.526;5.080;2022-12-16T15:44:17;16.25;;;6.22;;
75073;SDS011;63652;51.526;5.080;2022-12-16T15:47:25;14.30;;;6.32;;
75073;SDS011;63652;51.526;5.080;2022-12-16T15:50:24;15.60;;;6.60;;
75073;SDS011;63652;51.526;5.080;2022-12-16T15:56:43;11.25;;;6.68;;
75073;SDS011;63652;51.526;5.080;2022-12-16T16:05:59;13.55;;;7.13;;
75073;SDS011;63652;51.526;5.080;2022-12-16T16:08:43;14.63;;;6.30;;
75073;SDS011;63652;51.526;5.080;2022-12-16T16:11:30;15.43;;;6.45;;
75073;SDS011;63652;51.526;5.080;2022-12-16T16:14:19;10.05;;;6.13;;
75073;SDS011;63652;51.526;5.080;2022-12-16T16:17:07;13.52;;;6.35;;
75073;SDS011;63652;51.526;5.080;2022-12-16T16:20:03;13.98;;;7.20;;
75073;SDS011;63652;51.526;5.080;2022-12-16T16:22:47;14.30;;;7.50;;
75073;SDS011;63652;51.526;5.080;2022-12-16T16:25:31;14.13;;;6.80;;
75073;SDS011;63652;51.526;5.080;2022-12-16T16:28:15;13.32;;;6.43;;
75073;SDS011;63652;51.526;5.080;2022-12-16T16:30:59;11.20;;;6.03;;
75073;SDS011;63652;51.526;5.080;2022-12-16T16:33:43;17.60;;;6.68;;
75073;SDS011;63652;51.526;5.080;2022-12-16T16:36:27;14.18;;;7.05;;
75073;SDS011;63652;51.526;5.080;2022-12-16T16:39:12;13.55;;;6.97;;
75073;SDS011;63652;51.526;5.080;2022-12-16T16:41:58;12.25;;;6.40;;
75073;SDS011;63652;51.526;5.080;2022-12-16T16:44:43;15.27;;;6.93;;
75073;SDS011;63652;51.526;5.080;2022-12-16T16:47:26;14.98;;;7.22;;
75073;SDS011;63652;51.526;5.080;2022-12-16T16:50:13;17.35;;;7.60;;
75073;SDS011;63652;51.526;5.080;2022-12-16T16:52:57;16.77;;;7.93;;
75073;SDS011;63652;51.526;5.080;2022-12-16T16:55:41;19.48;;;7.63;;
75073;SDS011;63652;51.526;5.080;2022-12-16T16:58:26;17.98;;;7.78;;
75073;SDS011;63652;51.526;5.080;2022-12-16T17:01:11;22.73;;;8.57;;
75073;SDS011;63652;51.526;5.080;2022-12-16T17:03:56;15.25;;;8.23;;
75073;SDS011;63652;51.526;5.080;2022-12-16T17:06:43;15.60;;;8.80;;
75073;SDS011;63652;51.526;5.080;2022-12-16T17:09:27;16.48;;;8.60;;
75073;SDS011;63652;51.526;5.080;2022-12-16T17:12:18;17.95;;;8.38;;
75073;SDS011;63652;51.526;5.080;2022-12-16T17:15:17;19.65;;;9.10;;
75073;SDS011;63652;51.526;5.080;2022-12-16T17:18:03;18.23;;;8.52;;
75073;SDS011;63652;51.526;5.080;2022-12-16T17:20:48;16.75;;;9.20;;
75073;SDS011;63652;51.526;5.080;2022-12-16T17:23:32;19.35;;;9.38;;
75073;SDS011;63652;51.526;5.080;2022-12-16T17:26:16;18.20;;;9.15;;
75073;SDS011;63652;51.526;5.080;2022-12-16T17:29:00;22.02;;;10.02;;
75073;SDS011;63652;51.526;5.080;2022-12-16T17:31:44;16.48;;;8.95;;
75073;SDS011;63652;51.526;5.080;2022-12-16T17:34:28;21.55;;;9.48;;
75073;SDS011;63652;51.526;5.080;2022-12-16T17:37:12;22.52;;;11.07;;
75073;SDS011;63652;51.526;5.080;2022-12-16T17:39:56;17.27;;;9.70;;
75073;SDS011;63652;51.526;5.080;2022-12-16T17:42:40;20.83;;;9.68;;
75073;SDS011;63652;51.526;5.080;2022-12-16T17:45:25;23.98;;;10.70;;
75073;SDS011;63652;51.526;5.080;2022-12-16T17:48:08;18.08;;;9.90;;
75073;SDS011;63652;51.526;5.080;2022-12-16T17:50:52;20.80;;;9.82;;
75073;SDS011;63652;51.526;5.080;2022-12-16T17:53:36;25.55;;;11.70;;
75073;SDS011;63652;51.526;5.080;2022-12-16T17:56:20;20.70;;;11.18;;
75073;SDS011;63652;51.526;5.080;2022-12-16T17:59:04;19.13;;;10.02;;
75073;SDS011;63652;51.526;5.080;2022-12-16T18:01:48;17.40;;;9.88;;
75073;SDS011;63652;51.526;5.080;2022-12-16T18:04:32;19.38;;;9.00;;
75073;SDS011;63652;51.526;5.080;2022-12-16T18:07:16;23.52;;;11.13;;